sensor_id;sensor_type;location;lat;lon;timestamp;pressure;altitude;pressure_sealevel;temperature;humidity
52735;BME280;38631;47.572;10.704;2023-07-08T00:02:10;92835.91;;;17.22;81.07
52735;BME280;38631;47.572;10.704;2023-07-08T00:04:36;92833.16;;;17.46;79.89
52735;BME280;38631;47.572;10.704;2023-07-08T00:07:01;92831.28;;;17.35;81.56
52735;BME280;38631;47.572;10.704;2023-07-08T00:09:27;92830.91;;;17.61;81.64
52735;BME280;38631;47.572;10.704;2023-07-08T00:11:52;92832.03;;;17.47;82.42
52735;BME280;38631;47.572;10.704;2023-07-08T00:14:17;92824.19;;;17.14;85.51
52735;BME280;38631;47.572;10.704;2023-07-08T00:16:43;92823.78;;;17.40;85.53
52735;BME280;38631;47.572;10.704;2023-07-08T00:19:09;92824.25;;;17.30;86.41
52735;BME280;38631;47.572;10.704;2023-07-08T00:21:35;92829.22;;;17.03;88.99
52735;BME280;38631;47.572;10.704;2023-07-08T00:24:01;92824.41;;;17.21;87.40
52735;BME280;38631;47.572;10.704;2023-07-08T00:26:28;92829.19;;;17.28;87.15
52735;BME280;38631;47.572;10.704;2023-07-08T00:28:55;92813.72;;;17.37;86.45
52735;BME280;38631;47.572;10.704;2023-07-08T00:31:24;92818.78;;;17.26;86.69
52735;BME280;38631;47.572;10.704;2023-07-08T00:33:50;92815.63;;;17.37;86.31
52735;BME280;38631;47.572;10.704;2023-07-08T00:36:17;92818.66;;;17.35;85.07
52735;BME280;38631;47.572;10.704;2023-07-08T00:38:43;92814.19;;;17.27;83.82
52735;BME280;38631;47.572;10.704;2023-07-08T00:41:30;92808.31;;;17.09;84.42
52735;BME280;38631;47.572;10.704;2023-07-08T00:43:58;92809.91;;;16.98;84.54
52735;BME280;38631;47.572;10.704;2023-07-08T00:48:53;92808.63;;;17.20;83.80
52735;BME280;38631;47.572;10.704;2023-07-08T00:51:22;92813.53;;;17.18;84.24
52735;BME280;38631;47.572;10.704;2023-07-08T00:53:48;92820.47;;;17.31;83.59
52735;BME280;38631;47.572;10.704;2023-07-08T00:56:21;92816.16;;;17.02;82.91
52735;BME280;38631;47.572;10.704;2023-07-08T00:59:04;92828.41;;;17.15;82.61
52735;BME280;38631;47.572;10.704;2023-07-08T01:01:33;92824.00;;;17.35;82.54
52735;BME280;38631;47.572;10.704;2023-07-08T01:04:11;92827.53;;;16.74;83.38
52735;BME280;38631;47.572;10.704;2023-07-08T01:06:40;92815.69;;;17.00;77.30
52735;BME280;38631;47.572;10.704;2023-07-08T01:09:08;92821.31;;;16.82;79.98
52735;BME280;38631;47.572;10.704;2023-07-08T01:11:37;92812.22;;;17.12;75.65
52735;BME280;38631;47.572;10.704;2023-07-08T01:14:06;92820.63;;;17.79;69.51
52735;BME280;38631;47.572;10.704;2023-07-08T01:16:32;92820.78;;;17.70;73.84
52735;BME280;38631;47.572;10.704;2023-07-08T01:19:02;92818.69;;;17.23;75.44
52735;BME280;38631;47.572;10.704;2023-07-08T01:21:36;92821.94;;;17.57;72.04
52735;BME280;38631;47.572;10.704;2023-07-08T01:24:07;92814.56;;;17.54;71.61
52735;BME280;38631;47.572;10.704;2023-07-08T01:26:37;92808.69;;;17.76;66.57
52735;BME280;38631;47.572;10.704;2023-07-08T01:29:03;92801.25;;;18.29;61.34
52735;BME280;38631;47.572;10.704;2023-07-08T01:31:29;92800.91;;;18.47;59.74
52735;BME280;38631;47.572;10.704;2023-07-08T01:33:54;92796.72;;;18.65;58.86
52735;BME280;38631;47.572;10.704;2023-07-08T01:36:20;92809.41;;;18.81;59.88
52735;BME280;38631;47.572;10.704;2023-07-08T01:38:46;92793.97;;;18.62;61.98
52735;BME280;38631;47.572;10.704;2023-07-08T01:41:14;92795.78;;;18.26;64.09
52735;BME280;38631;47.572;10.704;2023-07-08T01:43:39;92795.06;;;18.13;64.48
52735;BME280;38631;47.572;10.704;2023-07-08T01:46:23;92790.81;;;17.96;65.47
52735;BME280;38631;47.572;10.704;2023-07-08T01:48:56;92801.63;;;18.00;65.30
52735;BME280;38631;47.572;10.704;2023-07-08T01:51:22;92809.94;;;17.95;66.69
52735;BME280;38631;47.572;10.704;2023-07-08T01:53:48;92796.13;;;17.80;66.93
52735;BME280;38631;47.572;10.704;2023-07-08T01:56:14;92802.38;;;17.56;69.61
52735;BME280;38631;47.572;10.704;2023-07-08T01:58:40;92798.59;;;17.45;74.12
52735;BME280;38631;47.572;10.704;2023-07-08T02:01:06;92793.59;;;17.43;76.57
52735;BME280;38631;47.572;10.704;2023-07-08T02:03:32;92795.81;;;17.41;79.87
52735;BME280;38631;47.572;10.704;2023-07-08T02:05:58;92780.91;;;17.16;82.98
52735;BME280;38631;47.572;10.704;2023-07-08T02:08:23;92781.44;;;17.21;81.47
52735;BME280;38631;47.572;10.704;2023-07-08T02:10:52;92783.94;;;17.14;81.95
52735;BME280;38631;47.572;10.704;2023-07-08T02:13:18;92782.88;;;17.31;78.69
52735;BME280;38631;47.572;10.704;2023-07-08T02:15:44;92790.56;;;17.33;79.87
52735;BME280;38631;47.572;10.704;2023-07-08T02:18:09;92793.38;;;17.36;81.68
52735;BME280;38631;47.572;10.704;2023-07-08T02:20:34;92786.41;;;17.47;80.11
52735;BME280;38631;47.572;10.704;2023-07-08T02:23:00;92778.78;;;17.49;80.15
52735;BME280;38631;47.572;10.704;2023-07-08T02:25:25;92771.16;;;17.52;78.58
52735;BME280;38631;47.572;10.704;2023-07-08T02:27:52;92777.88;;;17.45;77.48
52735;BME280;38631;47.572;10.704;2023-07-08T02:30:19;92770.09;;;17.40;76.06
52735;BME280;38631;47.572;10.704;2023-07-08T02:32:45;92769.72;;;17.54;75.24
52735;BME280;38631;47.572;10.704;2023-07-08T02:35:26;92787.94;;;17.61;74.66
52735;BME280;38631;47.572;10.704;2023-07-08T02:37:52;92776.63;;;17.27;71.89
52735;BME280;38631;47.572;10.704;2023-07-08T02:40:18;92785.72;;;17.51;71.30
52735;BME280;38631;47.572;10.704;2023-07-08T02:42:43;92783.25;;;17.17;70.66
52735;BME280;38631;47.572;10.704;2023-07-08T02:45:10;92795.16;;;17.32;70.95
52735;BME280;38631;47.572;10.704;2023-07-08T02:47:35;92788.56;;;17.30;70.02
52735;BME280;38631;47.572;10.704;2023-07-08T02:50:01;92801.06;;;16.97;72.59
52735;BME280;38631;47.572;10.704;2023-07-08T02:52:26;92791.78;;;16.95;71.40
52735;BME280;38631;47.572;10.704;2023-07-08T02:54:52;92805.75;;;16.76;72.53
52735;BME280;38631;47.572;10.704;2023-07-08T02:57:17;92798.06;;;16.99;71.52
52735;BME280;38631;47.572;10.704;2023-07-08T02:59:42;92803.66;;;16.94;71.08
52735;BME280;38631;47.572;10.704;2023-07-08T03:02:08;92814.25;;;17.02;70.67
52735;BME280;38631;47.572;10.704;2023-07-08T03:04:33;92815.69;;;17.00;72.04
52735;BME280;38631;47.572;10.704;2023-07-08T03:07:05;92815.59;;;17.09;72.94
52735;BME280;38631;47.572;10.704;2023-07-08T03:09:30;92811.91;;;17.13;72.06
52735;BME280;38631;47.572;10.704;2023-07-08T03:11:57;92820.81;;;17.17;72.43
52735;BME280;38631;47.572;10.704;2023-07-08T03:14:23;92817.78;;;17.31;72.44
52735;BME280;38631;47.572;10.704;2023-07-08T03:16:48;92829.22;;;17.16;72.79
52735;BME280;38631;47.572;10.704;2023-07-08T03:19:14;92842.88;;;16.86;74.50
52735;BME280;38631;47.572;10.704;2023-07-08T03:21:40;92834.25;;;17.05;74.69
52735;BME280;38631;47.572;10.704;2023-07-08T03:24:10;92839.84;;;17.12;75.48
52735;BME280;38631;47.572;10.704;2023-07-08T03:26:36;92844.09;;;16.76;74.00
52735;BME280;38631;47.572;10.704;2023-07-08T03:29:02;92847.56;;;16.89;73.36
52735;BME280;38631;47.572;10.704;2023-07-08T03:31:28;92850.34;;;16.93;73.74
52735;BME280;38631;47.572;10.704;2023-07-08T03:33:53;92847.47;;;16.98;74.71
52735;BME280;38631;47.572;10.704;2023-07-08T03:36:18;92871.50;;;16.94;73.57
52735;BME280;38631;47.572;10.704;2023-07-08T03:38:55;92880.28;;;16.70;75.73
52735;BME280;38631;47.572;10.704;2023-07-08T03:41:21;92884.31;;;16.76;75.67
52735;BME280;38631;47.572;10.704;2023-07-08T03:43:46;92891.03;;;16.82;73.97
52735;BME280;38631;47.572;10.704;2023-07-08T03:46:16;92885.13;;;16.89;72.11
52735;BME280;38631;47.572;10.704;2023-07-08T03:48:42;92883.22;;;17.02;69.67
52735;BME280;38631;47.572;10.704;2023-07-08T03:51:10;92888.81;;;16.97;70.49
52735;BME280;38631;47.572;10.704;2023-07-08T03:53:40;92893.50;;;17.12;70.07
52735;BME280;38631;47.572;10.704;2023-07-08T03:56:05;92889.81;;;17.17;68.83
52735;BME280;38631;47.572;10.704;2023-07-08T03:58:31;92885.44;;;17.24;69.71
52735;BME280;38631;47.572;10.704;2023-07-08T04:00:56;92885.81;;;17.23;68.69
52735;BME280;38631;47.572;10.704;2023-07-08T04:03:21;92897.41;;;17.15;69.31
52735;BME280;38631;47.572;10.704;2023-07-08T04:05:47;92899.44;;;16.93;70.48
52735;BME280;38631;47.572;10.704;2023-07-08T04:08:12;92895.31;;;17.08;70.14
52735;BME280;38631;47.572;10.704;2023-07-08T04:10:37;92876.84;;;17.06;70.80
52735;BME280;38631;47.572;10.704;2023-07-08T04:13:03;92877.31;;;16.96;71.85
52735;BME280;38631;47.572;10.704;2023-07-08T04:15:28;92869.25;;;17.09;71.79
52735;BME280;38631;47.572;10.704;2023-07-08T04:17:54;92867.56;;;17.28;72.18
52735;BME280;38631;47.572;10.704;2023-07-08T04:20:21;92870.09;;;17.37;72.74
52735;BME280;38631;47.572;10.704;2023-07-08T04:22:46;92871.25;;;16.99;73.40
52735;BME280;38631;47.572;10.704;2023-07-08T04:25:12;92878.97;;;17.13;74.34
52735;BME280;38631;47.572;10.704;2023-07-08T04:27:39;92883.44;;;17.09;74.65
52735;BME280;38631;47.572;10.704;2023-07-08T04:30:06;92885.13;;;17.14;75.71
52735;BME280;38631;47.572;10.704;2023-07-08T04:32:32;92881.09;;;17.08;75.55
52735;BME280;38631;47.572;10.704;2023-07-08T04:34:58;92901.00;;;17.19;74.63
52735;BME280;38631;47.572;10.704;2023-07-08T04:37:23;92884.75;;;17.27;72.74
52735;BME280;38631;47.572;10.704;2023-07-08T04:39:49;92889.50;;;17.71;72.40
52735;BME280;38631;47.572;10.704;2023-07-08T04:42:15;92889.06;;;17.81;71.10
52735;BME280;38631;47.572;10.704;2023-07-08T04:44:43;92892.31;;;18.03;70.38
52735;BME280;38631;47.572;10.704;2023-07-08T04:47:09;92892.06;;;18.08;70.88
52735;BME280;38631;47.572;10.704;2023-07-08T04:49:37;92902.41;;;18.06;73.77
52735;BME280;38631;47.572;10.704;2023-07-08T04:52:03;92906.09;;;18.29;73.58
52735;BME280;38631;47.572;10.704;2023-07-08T04:54:28;92899.72;;;18.50;72.48
52735;BME280;38631;47.572;10.704;2023-07-08T04:56:54;92902.16;;;18.71;70.79
52735;BME280;38631;47.572;10.704;2023-07-08T04:59:22;92896.88;;;18.59;68.68
52735;BME280;38631;47.572;10.704;2023-07-08T05:01:50;92890.72;;;18.74;68.94
52735;BME280;38631;47.572;10.704;2023-07-08T05:04:23;92896.00;;;18.70;70.14
52735;BME280;38631;47.572;10.704;2023-07-08T05:06:48;92906.88;;;18.74;67.84
52735;BME280;38631;47.572;10.704;2023-07-08T05:09:14;92920.41;;;18.77;69.34
52735;BME280;38631;47.572;10.704;2023-07-08T05:11:39;92909.41;;;18.83;69.26
52735;BME280;38631;47.572;10.704;2023-07-08T05:14:05;92919.66;;;18.93;68.46
52735;BME280;38631;47.572;10.704;2023-07-08T05:16:33;92916.44;;;19.03;69.04
52735;BME280;38631;47.572;10.704;2023-07-08T05:18:58;92915.84;;;18.94;69.01
52735;BME280;38631;47.572;10.704;2023-07-08T05:21:24;92922.41;;;18.81;69.73
52735;BME280;38631;47.572;10.704;2023-07-08T05:23:50;92929.03;;;18.55;72.96
52735;BME280;38631;47.572;10.704;2023-07-08T05:26:16;92931.53;;;18.48;74.46
52735;BME280;38631;47.572;10.704;2023-07-08T05:28:41;92924.66;;;18.34;72.90
52735;BME280;38631;47.572;10.704;2023-07-08T05:31:07;92921.47;;;18.45;68.46
52735;BME280;38631;47.572;10.704;2023-07-08T05:33:33;92923.41;;;18.60;67.47
52735;BME280;38631;47.572;10.704;2023-07-08T05:35:59;92915.41;;;18.92;67.40
52735;BME280;38631;47.572;10.704;2023-07-08T05:38:24;92922.66;;;19.23;65.20
52735;BME280;38631;47.572;10.704;2023-07-08T05:40:53;92917.28;;;19.39;64.95
52735;BME280;38631;47.572;10.704;2023-07-08T05:43:19;92917.38;;;19.78;65.40
52735;BME280;38631;47.572;10.704;2023-07-08T05:45:45;92927.19;;;20.05;65.51
52735;BME280;38631;47.572;10.704;2023-07-08T05:48:10;92923.38;;;20.06;65.71
52735;BME280;38631;47.572;10.704;2023-07-08T05:50:36;92924.06;;;19.84;65.13
52735;BME280;38631;47.572;10.704;2023-07-08T05:53:02;92919.22;;;19.93;64.68
52735;BME280;38631;47.572;10.704;2023-07-08T05:55:28;92926.91;;;20.30;66.23
52735;BME280;38631;47.572;10.704;2023-07-08T05:57:54;92928.41;;;20.27;66.21
52735;BME280;38631;47.572;10.704;2023-07-08T06:00:20;92920.75;;;20.10;65.26
52735;BME280;38631;47.572;10.704;2023-07-08T06:02:45;92929.66;;;19.95;68.21
52735;BME280;38631;47.572;10.704;2023-07-08T06:05:11;92932.56;;;19.86;69.11
52735;BME280;38631;47.572;10.704;2023-07-08T06:07:36;92946.09;;;19.70;71.04
52735;BME280;38631;47.572;10.704;2023-07-08T06:10:02;92939.22;;;19.73;69.27
52735;BME280;38631;47.572;10.704;2023-07-08T06:12:29;92932.59;;;19.70;68.14
52735;BME280;38631;47.572;10.704;2023-07-08T06:14:55;92928.00;;;19.55;68.29
52735;BME280;38631;47.572;10.704;2023-07-08T06:17:21;92943.13;;;19.59;69.15
52735;BME280;38631;47.572;10.704;2023-07-08T06:19:47;92925.69;;;19.37;71.50
52735;BME280;38631;47.572;10.704;2023-07-08T06:22:12;92928.81;;;19.39;70.95
52735;BME280;38631;47.572;10.704;2023-07-08T06:24:38;92942.19;;;19.52;71.20
52735;BME280;38631;47.572;10.704;2023-07-08T06:27:04;92953.75;;;19.52;70.36
52735;BME280;38631;47.572;10.704;2023-07-08T06:29:29;92939.78;;;19.47;68.99
52735;BME280;38631;47.572;10.704;2023-07-08T06:31:55;92942.69;;;19.57;70.39
52735;BME280;38631;47.572;10.704;2023-07-08T06:34:20;92927.06;;;19.47;67.10
52735;BME280;38631;47.572;10.704;2023-07-08T06:36:48;92930.72;;;19.55;66.76
52735;BME280;38631;47.572;10.704;2023-07-08T06:39:14;92925.72;;;19.73;67.07
52735;BME280;38631;47.572;10.704;2023-07-08T06:41:39;92926.16;;;19.75;67.23
52735;BME280;38631;47.572;10.704;2023-07-08T06:44:05;92917.22;;;19.71;67.85
52735;BME280;38631;47.572;10.704;2023-07-08T06:46:30;92924.25;;;19.75;67.81
52735;BME280;38631;47.572;10.704;2023-07-08T06:48:55;92929.44;;;19.84;69.17
52735;BME280;38631;47.572;10.704;2023-07-08T06:51:21;92928.31;;;19.85;68.54
52735;BME280;38631;47.572;10.704;2023-07-08T06:53:46;92939.88;;;19.85;69.00
52735;BME280;38631;47.572;10.704;2023-07-08T06:56:12;92941.44;;;19.87;65.55
52735;BME280;38631;47.572;10.704;2023-07-08T06:58:37;92947.25;;;20.08;64.37
52735;BME280;38631;47.572;10.704;2023-07-08T07:01:02;92943.09;;;20.30;64.24
52735;BME280;38631;47.572;10.704;2023-07-08T07:03:28;92948.81;;;20.48;62.14
52735;BME280;38631;47.572;10.704;2023-07-08T07:05:53;92945.06;;;20.53;63.86
52735;BME280;38631;47.572;10.704;2023-07-08T07:08:18;92947.47;;;20.38;63.07
52735;BME280;38631;47.572;10.704;2023-07-08T07:10:44;92963.09;;;20.48;62.76
52735;BME280;38631;47.572;10.704;2023-07-08T07:13:09;92955.25;;;20.59;63.33
52735;BME280;38631;47.572;10.704;2023-07-08T07:15:35;92952.38;;;20.52;65.67
52735;BME280;38631;47.572;10.704;2023-07-08T07:18:00;92961.34;;;20.56;66.90
52735;BME280;38631;47.572;10.704;2023-07-08T07:20:26;92963.06;;;20.64;67.22
52735;BME280;38631;47.572;10.704;2023-07-08T07:22:52;92961.44;;;20.83;68.56
52735;BME280;38631;47.572;10.704;2023-07-08T07:25:18;92965.09;;;20.94;68.26
52735;BME280;38631;47.572;10.704;2023-07-08T07:27:44;92967.94;;;21.01;67.24
52735;BME280;38631;47.572;10.704;2023-07-08T07:30:09;92973.22;;;20.94;66.55
52735;BME280;38631;47.572;10.704;2023-07-08T07:32:40;92964.84;;;20.99;64.17
52735;BME280;38631;47.572;10.704;2023-07-08T07:35:06;92964.75;;;20.96;64.51
52735;BME280;38631;47.572;10.704;2023-07-08T07:37:31;92969.69;;;20.90;63.36
52735;BME280;38631;47.572;10.704;2023-07-08T07:39:56;92965.59;;;20.77;65.81
52735;BME280;38631;47.572;10.704;2023-07-08T07:42:22;92968.94;;;20.70;65.14
52735;BME280;38631;47.572;10.704;2023-07-08T07:44:47;92979.16;;;20.80;64.31
52735;BME280;38631;47.572;10.704;2023-07-08T07:47:13;92977.84;;;20.93;65.90
52735;BME280;38631;47.572;10.704;2023-07-08T07:49:39;92977.53;;;20.99;67.57
52735;BME280;38631;47.572;10.704;2023-07-08T07:52:05;92981.91;;;20.84;69.57
52735;BME280;38631;47.572;10.704;2023-07-08T07:54:31;92976.31;;;20.73;68.55
52735;BME280;38631;47.572;10.704;2023-07-08T07:56:56;92980.00;;;20.84;66.61
52735;BME280;38631;47.572;10.704;2023-07-08T07:59:21;92985.00;;;21.28;65.30
52735;BME280;38631;47.572;10.704;2023-07-08T08:01:47;92960.94;;;21.43;62.37
52735;BME280;38631;47.572;10.704;2023-07-08T08:04:12;92976.81;;;21.71;62.61
52735;BME280;38631;47.572;10.704;2023-07-08T08:06:37;92972.19;;;21.98;62.43
52735;BME280;38631;47.572;10.704;2023-07-08T08:09:04;92980.50;;;21.86;61.85
52735;BME280;38631;47.572;10.704;2023-07-08T08:11:29;92966.00;;;21.71;62.86
52735;BME280;38631;47.572;10.704;2023-07-08T08:13:56;92974.75;;;21.64;61.68
52735;BME280;38631;47.572;10.704;2023-07-08T08:16:21;92971.19;;;21.56;60.79
52735;BME280;38631;47.572;10.704;2023-07-08T08:18:47;92967.72;;;21.83;61.41
52735;BME280;38631;47.572;10.704;2023-07-08T08:21:18;92971.06;;;22.29;59.93
52735;BME280;38631;47.572;10.704;2023-07-08T08:23:44;92968.84;;;22.38;53.60
52735;BME280;38631;47.572;10.704;2023-07-08T08:26:09;92978.72;;;22.24;54.41
52735;BME280;38631;47.572;10.704;2023-07-08T08:28:35;92979.25;;;22.33;55.01
52735;BME280;38631;47.572;10.704;2023-07-08T08:31:00;92971.84;;;22.30;56.41
52735;BME280;38631;47.572;10.704;2023-07-08T08:33:25;92977.59;;;22.58;55.26
52735;BME280;38631;47.572;10.704;2023-07-08T08:35:51;92974.22;;;22.69;54.35
52735;BME280;38631;47.572;10.704;2023-07-08T08:38:16;92968.84;;;23.06;56.81
52735;BME280;38631;47.572;10.704;2023-07-08T08:40:43;92979.03;;;23.20;56.43
52735;BME280;38631;47.572;10.704;2023-07-08T08:43:18;92977.84;;;22.80;56.44
52735;BME280;38631;47.572;10.704;2023-07-08T08:46:23;92972.16;;;22.92;55.43
52735;BME280;38631;47.572;10.704;2023-07-08T08:49:16;92974.22;;;22.65;53.38
52735;BME280;38631;47.572;10.704;2023-07-08T08:51:43;92972.94;;;22.55;54.57
52735;BME280;38631;47.572;10.704;2023-07-08T08:54:09;92977.03;;;22.76;54.33
52735;BME280;38631;47.572;10.704;2023-07-08T08:59:49;92982.31;;;22.65;53.24
52735;BME280;38631;47.572;10.704;2023-07-08T09:04:49;92982.28;;;22.61;53.62
52735;BME280;38631;47.572;10.704;2023-07-08T09:07:18;92984.72;;;22.74;54.67
52735;BME280;38631;47.572;10.704;2023-07-08T09:10:07;92987.03;;;22.72;56.11
52735;BME280;38631;47.572;10.704;2023-07-08T09:12:34;92987.09;;;22.75;54.23
52735;BME280;38631;47.572;10.704;2023-07-08T09:15:09;92980.81;;;22.68;53.20
52735;BME280;38631;47.572;10.704;2023-07-08T09:17:36;92986.59;;;23.00;54.15
52735;BME280;38631;47.572;10.704;2023-07-08T09:27:51;92977.75;;;23.51;51.35
52735;BME280;38631;47.572;10.704;2023-07-08T09:30:20;92986.38;;;23.60;51.39
52735;BME280;38631;47.572;10.704;2023-07-08T09:32:47;92985.91;;;23.55;51.31
52735;BME280;38631;47.572;10.704;2023-07-08T09:35:37;92978.59;;;23.59;53.10
52735;BME280;38631;47.572;10.704;2023-07-08T09:38:07;92987.84;;;23.50;51.22
52735;BME280;38631;47.572;10.704;2023-07-08T09:40:33;92979.41;;;23.63;51.53
52735;BME280;38631;47.572;10.704;2023-07-08T09:43:16;92974.00;;;23.70;52.04
52735;BME280;38631;47.572;10.704;2023-07-08T09:45:47;92981.84;;;23.75;51.84
52735;BME280;38631;47.572;10.704;2023-07-08T09:48:19;92991.13;;;23.74;53.21
52735;BME280;38631;47.572;10.704;2023-07-08T09:50:48;92984.84;;;23.66;52.19
52735;BME280;38631;47.572;10.704;2023-07-08T09:53:14;92987.66;;;23.74;51.41
52735;BME280;38631;47.572;10.704;2023-07-08T09:55:40;92987.41;;;23.93;52.86
52735;BME280;38631;47.572;10.704;2023-07-08T09:58:12;92992.44;;;23.94;51.01
52735;BME280;38631;47.572;10.704;2023-07-08T10:00:40;92988.31;;;24.19;51.21
52735;BME280;38631;47.572;10.704;2023-07-08T10:03:22;92994.47;;;24.08;51.69
52735;BME280;38631;47.572;10.704;2023-07-08T10:05:49;92995.91;;;23.91;50.32
52735;BME280;38631;47.572;10.704;2023-07-08T10:08:22;92994.56;;;24.23;51.45
52735;BME280;38631;47.572;10.704;2023-07-08T10:10:57;92997.59;;;24.14;49.90
52735;BME280;38631;47.572;10.704;2023-07-08T10:13:45;92998.69;;;24.02;50.26
52735;BME280;38631;47.572;10.704;2023-07-08T10:16:17;92997.94;;;24.05;51.58
52735;BME280;38631;47.572;10.704;2023-07-08T10:18:46;92994.84;;;24.07;50.61
52735;BME280;38631;47.572;10.704;2023-07-08T10:26:37;93001.75;;;23.97;50.58
52735;BME280;38631;47.572;10.704;2023-07-08T10:29:23;93000.63;;;24.02;49.88
52735;BME280;38631;47.572;10.704;2023-07-08T10:32:18;93009.81;;;23.86;51.12
52735;BME280;38631;47.572;10.704;2023-07-08T10:34:57;92998.97;;;23.83;49.03
52735;BME280;38631;47.572;10.704;2023-07-08T10:38:01;93003.28;;;23.91;50.50
52735;BME280;38631;47.572;10.704;2023-07-08T10:40:43;92999.69;;;23.80;49.19
52735;BME280;38631;47.572;10.704;2023-07-08T10:46:12;92994.06;;;24.03;54.51
52735;BME280;38631;47.572;10.704;2023-07-08T10:51:39;92998.19;;;23.86;51.19
52735;BME280;38631;47.572;10.704;2023-07-08T10:56:54;92997.13;;;24.01;51.57
52735;BME280;38631;47.572;10.704;2023-07-08T11:06:01;93000.09;;;23.82;50.47
52735;BME280;38631;47.572;10.704;2023-07-08T11:08:35;92990.44;;;23.84;49.55
52735;BME280;38631;47.572;10.704;2023-07-08T11:11:09;92999.84;;;24.01;48.38
52735;BME280;38631;47.572;10.704;2023-07-08T11:13:44;92986.88;;;24.43;48.71
52735;BME280;38631;47.572;10.704;2023-07-08T11:16:25;92998.63;;;24.54;49.71
52735;BME280;38631;47.572;10.704;2023-07-08T11:19:09;92997.50;;;24.69;48.81
52735;BME280;38631;47.572;10.704;2023-07-08T11:21:40;92989.59;;;24.39;46.85
52735;BME280;38631;47.572;10.704;2023-07-08T11:24:34;92996.13;;;24.27;47.05
52735;BME280;38631;47.572;10.704;2023-07-08T11:27:16;92989.78;;;24.02;46.54
52735;BME280;38631;47.572;10.704;2023-07-08T11:29:51;92992.47;;;23.98;48.76
52735;BME280;38631;47.572;10.704;2023-07-08T11:32:20;92986.63;;;23.96;47.88
52735;BME280;38631;47.572;10.704;2023-07-08T11:34:47;92986.94;;;23.80;46.91
52735;BME280;38631;47.572;10.704;2023-07-08T11:37:15;92988.66;;;24.10;48.05
52735;BME280;38631;47.572;10.704;2023-07-08T11:39:46;92982.28;;;23.81;47.29
52735;BME280;38631;47.572;10.704;2023-07-08T11:44:44;92989.72;;;23.94;47.29
52735;BME280;38631;47.572;10.704;2023-07-08T11:47:32;92981.94;;;23.89;47.04
52735;BME280;38631;47.572;10.704;2023-07-08T11:50:00;92977.16;;;24.34;47.66
52735;BME280;38631;47.572;10.704;2023-07-08T11:52:26;92979.91;;;24.38;47.66
52735;BME280;38631;47.572;10.704;2023-07-08T11:55:03;92972.41;;;24.17;46.92
52735;BME280;38631;47.572;10.704;2023-07-08T11:57:39;92969.28;;;24.08;44.40
52735;BME280;38631;47.572;10.704;2023-07-08T12:00:19;92965.84;;;24.22;46.00
52735;BME280;38631;47.572;10.704;2023-07-08T12:02:51;92969.28;;;24.11;44.67
52735;BME280;38631;47.572;10.704;2023-07-08T12:05:17;92961.50;;;24.06;44.31
52735;BME280;38631;47.572;10.704;2023-07-08T12:07:55;92972.53;;;24.42;45.64
52735;BME280;38631;47.572;10.704;2023-07-08T12:10:28;92972.84;;;24.26;46.11
52735;BME280;38631;47.572;10.704;2023-07-08T12:12:55;92974.75;;;24.19;46.57
52735;BME280;38631;47.572;10.704;2023-07-08T12:15:26;92972.84;;;24.30;48.04
52735;BME280;38631;47.572;10.704;2023-07-08T12:17:56;92977.31;;;24.63;48.44
52735;BME280;38631;47.572;10.704;2023-07-08T12:20:27;92977.72;;;24.69;48.38
52735;BME280;38631;47.572;10.704;2023-07-08T12:22:53;92973.84;;;24.77;48.93
52735;BME280;38631;47.572;10.704;2023-07-08T12:25:22;92978.91;;;24.75;48.25
52735;BME280;38631;47.572;10.704;2023-07-08T12:27:47;92980.41;;;24.62;48.71
52735;BME280;38631;47.572;10.704;2023-07-08T12:30:15;92987.78;;;24.61;48.42
52735;BME280;38631;47.572;10.704;2023-07-08T12:32:41;92987.75;;;24.54;48.88
52735;BME280;38631;47.572;10.704;2023-07-08T12:37:55;92986.75;;;24.10;48.82
52735;BME280;38631;47.572;10.704;2023-07-08T12:40:22;92987.47;;;24.04;49.06
52735;BME280;38631;47.572;10.704;2023-07-08T12:42:47;92982.78;;;24.01;49.33
52735;BME280;38631;47.572;10.704;2023-07-08T12:45:17;92985.13;;;24.02;49.14
52735;BME280;38631;47.572;10.704;2023-07-08T12:47:44;92996.03;;;24.09;50.69
52735;BME280;38631;47.572;10.704;2023-07-08T12:50:10;93003.03;;;24.14;49.57
52735;BME280;38631;47.572;10.704;2023-07-08T12:52:36;93001.50;;;24.20;51.47
52735;BME280;38631;47.572;10.704;2023-07-08T12:55:02;93006.59;;;24.29;50.07
52735;BME280;38631;47.572;10.704;2023-07-08T12:57:27;92998.47;;;24.29;50.40
52735;BME280;38631;47.572;10.704;2023-07-08T12:59:53;93000.38;;;24.25;50.13
52735;BME280;38631;47.572;10.704;2023-07-08T13:02:20;93001.56;;;24.31;49.97
52735;BME280;38631;47.572;10.704;2023-07-08T13:04:54;93005.47;;;24.33;49.88
52735;BME280;38631;47.572;10.704;2023-07-08T13:07:33;92998.38;;;24.11;48.84
52735;BME280;38631;47.572;10.704;2023-07-08T13:09:59;92995.53;;;24.55;49.63
52735;BME280;38631;47.572;10.704;2023-07-08T13:12:25;92992.44;;;24.61;49.50
52735;BME280;38631;47.572;10.704;2023-07-08T13:14:53;93000.94;;;24.52;49.52
52735;BME280;38631;47.572;10.704;2023-07-08T13:17:19;92998.13;;;24.41;48.65
52735;BME280;38631;47.572;10.704;2023-07-08T13:19:45;92995.91;;;24.57;48.42
52735;BME280;38631;47.572;10.704;2023-07-08T13:22:17;92998.97;;;24.52;48.26
52735;BME280;38631;47.572;10.704;2023-07-08T13:24:44;93005.50;;;24.41;51.62
52735;BME280;38631;47.572;10.704;2023-07-08T13:27:20;92997.22;;;24.15;50.51
52735;BME280;38631;47.572;10.704;2023-07-08T13:29:46;92989.19;;;24.33;50.57
52735;BME280;38631;47.572;10.704;2023-07-08T13:32:11;92997.28;;;24.30;49.67
52735;BME280;38631;47.572;10.704;2023-07-08T13:34:39;93008.19;;;24.33;50.38
52735;BME280;38631;47.572;10.704;2023-07-08T13:37:12;92998.47;;;24.32;50.33
52735;BME280;38631;47.572;10.704;2023-07-08T13:39:44;93001.50;;;24.17;49.95